sensor_id;sensor_type;location;lat;lon;timestamp;P1;durP1;ratioP1;P2;durP2;ratioP2
422;SDS011;198;48.752;9.180;2023-05-23T00:02:15;47.43;;;20.10;;
422;SDS011;198;48.752;9.180;2023-05-23T00:04:41;55.43;;;22.40;;
422;SDS011;198;48.752;9.180;2023-05-23T00:07:07;57.07;;;20.67;;
422;SDS011;198;48.752;9.180;2023-05-23T00:09:32;62.87;;;22.30;;
422;SDS011;198;48.752;9.180;2023-05-23T00:11:58;57.63;;;21.50;;
422;SDS011;198;48.752;9.180;2023-05-23T00:14:24;68.27;;;22.50;;
422;SDS011;198;48.752;9.180;2023-05-23T00:16:49;55.87;;;21.90;;
422;SDS011;198;48.752;9.180;2023-05-23T00:19:15;60.80;;;22.07;;
422;SDS011;198;48.752;9.180;2023-05-23T00:21:41;68.70;;;25.73;;
422;SDS011;198;48.752;9.180;2023-05-23T00:24:13;77.40;;;25.47;;
422;SDS011;198;48.752;9.180;2023-05-23T00:26:42;75.30;;;28.87;;
422;SDS011;198;48.752;9.180;2023-05-23T00:29:11;64.87;;;25.73;;
422;SDS011;198;48.752;9.180;2023-05-23T00:31:41;84.10;;;27.80;;
422;SDS011;198;48.752;9.180;2023-05-23T00:34:10;74.13;;;27.10;;
422;SDS011;198;48.752;9.180;2023-05-23T00:36:39;74.30;;;26.90;;
422;SDS011;198;48.752;9.180;2023-05-23T00:39:05;83.27;;;28.20;;
422;SDS011;198;48.752;9.180;2023-05-23T00:41:32;86.57;;;30.73;;
422;SDS011;198;48.752;9.180;2023-05-23T00:43:57;87.17;;;30.90;;
422;SDS011;198;48.752;9.180;2023-05-23T00:46:24;77.93;;;27.20;;
422;SDS011;198;48.752;9.180;2023-05-23T00:48:50;76.47;;;27.30;;
422;SDS011;198;48.752;9.180;2023-05-23T00:51:16;77.47;;;27.37;;
422;SDS011;198;48.752;9.180;2023-05-23T00:53:42;74.27;;;26.13;;
422;SDS011;198;48.752;9.180;2023-05-23T00:56:08;80.43;;;29.20;;
422;SDS011;198;48.752;9.180;2023-05-23T00:58:36;77.77;;;26.87;;
422;SDS011;198;48.752;9.180;2023-05-23T01:01:01;68.27;;;27.43;;
422;SDS011;198;48.752;9.180;2023-05-23T01:03:27;75.57;;;30.33;;
422;SDS011;198;48.752;9.180;2023-05-23T01:05:54;73.50;;;28.23;;
422;SDS011;198;48.752;9.180;2023-05-23T01:08:20;87.93;;;30.20;;
422;SDS011;198;48.752;9.180;2023-05-23T01:10:46;67.30;;;24.90;;
422;SDS011;198;48.752;9.180;2023-05-23T01:13:16;84.23;;;28.13;;
422;SDS011;198;48.752;9.180;2023-05-23T01:15:54;83.03;;;31.00;;
422;SDS011;198;48.752;9.180;2023-05-23T01:18:32;70.93;;;27.47;;
422;SDS011;198;48.752;9.180;2023-05-23T01:21:17;88.17;;;32.33;;
422;SDS011;198;48.752;9.180;2023-05-23T01:26:31;70.47;;;22.60;;
422;SDS011;198;48.752;9.180;2023-05-23T01:29:19;76.80;;;27.80;;
422;SDS011;198;48.752;9.180;2023-05-23T01:31:48;74.60;;;29.20;;
422;SDS011;198;48.752;9.180;2023-05-23T01:34:18;89.30;;;31.90;;
422;SDS011;198;48.752;9.180;2023-05-23T01:36:45;72.53;;;28.20;;
422;SDS011;198;48.752;9.180;2023-05-23T01:39:14;70.60;;;28.50;;
422;SDS011;198;48.752;9.180;2023-05-23T01:41:40;90.83;;;32.90;;
422;SDS011;198;48.752;9.180;2023-05-23T01:44:06;95.17;;;33.17;;
422;SDS011;198;48.752;9.180;2023-05-23T01:46:32;95.87;;;29.00;;
422;SDS011;198;48.752;9.180;2023-05-23T01:49:00;93.50;;;31.70;;
422;SDS011;198;48.752;9.180;2023-05-23T01:51:27;79.07;;;29.20;;
422;SDS011;198;48.752;9.180;2023-05-23T01:53:53;91.60;;;30.70;;
422;SDS011;198;48.752;9.180;2023-05-23T01:56:19;77.60;;;30.27;;
422;SDS011;198;48.752;9.180;2023-05-23T01:58:45;80.93;;;30.47;;
422;SDS011;198;48.752;9.180;2023-05-23T02:01:11;114.57;;;38.17;;
422;SDS011;198;48.752;9.180;2023-05-23T02:03:37;91.20;;;30.50;;
422;SDS011;198;48.752;9.180;2023-05-23T02:06:03;79.10;;;29.93;;
422;SDS011;198;48.752;9.180;2023-05-23T02:08:28;105.40;;;37.90;;
422;SDS011;198;48.752;9.180;2023-05-23T02:10:54;94.57;;;32.57;;
422;SDS011;198;48.752;9.180;2023-05-23T02:13:19;97.03;;;35.20;;
422;SDS011;198;48.752;9.180;2023-05-23T02:15:45;87.50;;;32.30;;
422;SDS011;198;48.752;9.180;2023-05-23T02:18:10;101.57;;;35.00;;
422;SDS011;198;48.752;9.180;2023-05-23T02:20:36;108.67;;;37.43;;
422;SDS011;198;48.752;9.180;2023-05-23T02:23:02;93.77;;;34.23;;
422;SDS011;198;48.752;9.180;2023-05-23T02:25:28;100.77;;;36.10;;
422;SDS011;198;48.752;9.180;2023-05-23T02:27:53;102.83;;;36.67;;
422;SDS011;198;48.752;9.180;2023-05-23T02:30:19;111.77;;;37.87;;
422;SDS011;198;48.752;9.180;2023-05-23T02:32:44;112.23;;;34.47;;
422;SDS011;198;48.752;9.180;2023-05-23T02:35:10;93.00;;;33.80;;
422;SDS011;198;48.752;9.180;2023-05-23T02:37:36;106.50;;;36.40;;
422;SDS011;198;48.752;9.180;2023-05-23T02:40:01;108.30;;;39.40;;
422;SDS011;198;48.752;9.180;2023-05-23T02:42:27;91.23;;;34.80;;
422;SDS011;198;48.752;9.180;2023-05-23T02:44:52;101.70;;;37.57;;
422;SDS011;198;48.752;9.180;2023-05-23T02:47:18;105.37;;;35.70;;
422;SDS011;198;48.752;9.180;2023-05-23T02:49:43;110.83;;;40.70;;
422;SDS011;198;48.752;9.180;2023-05-23T02:52:09;113.30;;;39.53;;
422;SDS011;198;48.752;9.180;2023-05-23T02:54:34;102.93;;;37.37;;
422;SDS011;198;48.752;9.180;2023-05-23T02:57:00;94.93;;;35.07;;
422;SDS011;198;48.752;9.180;2023-05-23T02:59:25;111.43;;;37.00;;
422;SDS011;198;48.752;9.180;2023-05-23T03:01:51;97.87;;;38.07;;
422;SDS011;198;48.752;9.180;2023-05-23T03:04:16;101.57;;;36.30;;
422;SDS011;198;48.752;9.180;2023-05-23T03:06:42;100.40;;;36.77;;
422;SDS011;198;48.752;9.180;2023-05-23T03:09:08;100.73;;;37.30;;
422;SDS011;198;48.752;9.180;2023-05-23T03:11:34;86.97;;;36.67;;
422;SDS011;198;48.752;9.180;2023-05-23T03:14:00;100.20;;;35.43;;
422;SDS011;198;48.752;9.180;2023-05-23T03:16:26;95.37;;;34.60;;
422;SDS011;198;48.752;9.180;2023-05-23T03:18:51;81.60;;;30.43;;
422;SDS011;198;48.752;9.180;2023-05-23T03:21:17;98.60;;;36.63;;
422;SDS011;198;48.752;9.180;2023-05-23T03:23:42;82.33;;;32.20;;
422;SDS011;198;48.752;9.180;2023-05-23T03:26:08;88.43;;;32.30;;
422;SDS011;198;48.752;9.180;2023-05-23T03:28:33;97.23;;;36.83;;
422;SDS011;198;48.752;9.180;2023-05-23T03:30:59;92.07;;;35.37;;
422;SDS011;198;48.752;9.180;2023-05-23T03:33:24;90.20;;;32.83;;
422;SDS011;198;48.752;9.180;2023-05-23T03:35:50;81.57;;;32.20;;
422;SDS011;198;48.752;9.180;2023-05-23T03:38:16;79.70;;;31.20;;
422;SDS011;198;48.752;9.180;2023-05-23T03:40:42;71.80;;;29.30;;
422;SDS011;198;48.752;9.180;2023-05-23T03:43:07;81.77;;;30.47;;
422;SDS011;198;48.752;9.180;2023-05-23T03:45:33;84.93;;;32.90;;
422;SDS011;198;48.752;9.180;2023-05-23T03:47:58;87.10;;;32.60;;
422;SDS011;198;48.752;9.180;2023-05-23T03:50:24;82.37;;;30.00;;
422;SDS011;198;48.752;9.180;2023-05-23T03:52:50;72.07;;;30.47;;
422;SDS011;198;48.752;9.180;2023-05-23T03:55:16;83.60;;;31.73;;
422;SDS011;198;48.752;9.180;2023-05-23T03:57:46;79.53;;;32.07;;
422;SDS011;198;48.752;9.180;2023-05-23T04:00:12;70.57;;;29.50;;
422;SDS011;198;48.752;9.180;2023-05-23T04:02:38;83.07;;;33.40;;
422;SDS011;198;48.752;9.180;2023-05-23T04:05:04;71.33;;;29.73;;
422;SDS011;198;48.752;9.180;2023-05-23T04:07:30;62.47;;;25.03;;
422;SDS011;198;48.752;9.180;2023-05-23T04:09:58;69.23;;;29.20;;
422;SDS011;198;48.752;9.180;2023-05-23T04:12:24;86.83;;;33.97;;
422;SDS011;198;48.752;9.180;2023-05-23T04:14:50;76.67;;;28.57;;
422;SDS011;198;48.752;9.180;2023-05-23T04:17:16;75.83;;;28.27;;
422;SDS011;198;48.752;9.180;2023-05-23T04:19:42;70.40;;;30.33;;
422;SDS011;198;48.752;9.180;2023-05-23T04:22:08;91.03;;;30.70;;
422;SDS011;198;48.752;9.180;2023-05-23T04:24:33;59.40;;;25.27;;
422;SDS011;198;48.752;9.180;2023-05-23T04:26:59;72.03;;;30.03;;
422;SDS011;198;48.752;9.180;2023-05-23T04:29:25;62.73;;;28.23;;
422;SDS011;198;48.752;9.180;2023-05-23T04:31:51;91.13;;;31.03;;
422;SDS011;198;48.752;9.180;2023-05-23T04:34:18;65.97;;;26.50;;
422;SDS011;198;48.752;9.180;2023-05-23T04:36:46;76.97;;;29.30;;
422;SDS011;198;48.752;9.180;2023-05-23T04:39:12;74.30;;;31.27;;
422;SDS011;198;48.752;9.180;2023-05-23T04:41:38;72.80;;;30.20;;
422;SDS011;198;48.752;9.180;2023-05-23T04:44:03;73.80;;;29.27;;
422;SDS011;198;48.752;9.180;2023-05-23T04:46:30;67.60;;;27.27;;
422;SDS011;198;48.752;9.180;2023-05-23T04:48:55;61.37;;;27.30;;
422;SDS011;198;48.752;9.180;2023-05-23T04:51:22;69.47;;;26.73;;
422;SDS011;198;48.752;9.180;2023-05-23T04:53:49;76.77;;;25.90;;
422;SDS011;198;48.752;9.180;2023-05-23T04:56:15;62.77;;;28.00;;
422;SDS011;198;48.752;9.180;2023-05-23T04:58:41;71.70;;;29.73;;
422;SDS011;198;48.752;9.180;2023-05-23T05:01:09;69.70;;;26.13;;
422;SDS011;198;48.752;9.180;2023-05-23T05:03:35;59.30;;;26.63;;
422;SDS011;198;48.752;9.180;2023-05-23T05:06:01;67.77;;;28.77;;
422;SDS011;198;48.752;9.180;2023-05-23T05:08:26;66.53;;;29.27;;
422;SDS011;198;48.752;9.180;2023-05-23T05:10:53;78.10;;;28.40;;
422;SDS011;198;48.752;9.180;2023-05-23T05:13:19;69.07;;;26.37;;
422;SDS011;198;48.752;9.180;2023-05-23T05:15:44;60.43;;;28.07;;
422;SDS011;198;48.752;9.180;2023-05-23T05:18:10;57.63;;;28.50;;
422;SDS011;198;48.752;9.180;2023-05-23T05:20:37;62.63;;;27.57;;
422;SDS011;198;48.752;9.180;2023-05-23T05:23:04;64.17;;;28.13;;
422;SDS011;198;48.752;9.180;2023-05-23T05:25:29;63.60;;;26.80;;
422;SDS011;198;48.752;9.180;2023-05-23T05:28:02;61.43;;;23.90;;
422;SDS011;198;48.752;9.180;2023-05-23T05:30:31;62.20;;;27.83;;
422;SDS011;198;48.752;9.180;2023-05-23T05:33:00;66.87;;;29.10;;
422;SDS011;198;48.752;9.180;2023-05-23T05:35:30;58.73;;;23.90;;
422;SDS011;198;48.752;9.180;2023-05-23T05:37:56;69.67;;;27.50;;
422;SDS011;198;48.752;9.180;2023-05-23T05:40:22;63.97;;;27.57;;
422;SDS011;198;48.752;9.180;2023-05-23T05:42:47;67.07;;;24.73;;
422;SDS011;198;48.752;9.180;2023-05-23T05:45:13;62.77;;;27.87;;
422;SDS011;198;48.752;9.180;2023-05-23T05:47:38;59.80;;;26.90;;
422;SDS011;198;48.752;9.180;2023-05-23T05:50:04;82.97;;;28.80;;
422;SDS011;198;48.752;9.180;2023-05-23T05:52:31;61.43;;;29.97;;
422;SDS011;198;48.752;9.180;2023-05-23T05:54:58;57.40;;;26.47;;
422;SDS011;198;48.752;9.180;2023-05-23T05:57:24;47.77;;;22.90;;
422;SDS011;198;48.752;9.180;2023-05-23T05:59:49;67.53;;;30.40;;
422;SDS011;198;48.752;9.180;2023-05-23T06:02:15;56.27;;;26.03;;
422;SDS011;198;48.752;9.180;2023-05-23T06:04:40;45.83;;;24.47;;
422;SDS011;198;48.752;9.180;2023-05-23T06:07:06;49.07;;;22.40;;
422;SDS011;198;48.752;9.180;2023-05-23T06:09:31;56.77;;;25.53;;
422;SDS011;198;48.752;9.180;2023-05-23T06:11:57;62.17;;;26.60;;
422;SDS011;198;48.752;9.180;2023-05-23T06:14:24;58.33;;;25.87;;
422;SDS011;198;48.752;9.180;2023-05-23T06:16:50;69.53;;;27.00;;
422;SDS011;198;48.752;9.180;2023-05-23T06:19:15;60.40;;;29.37;;
422;SDS011;198;48.752;9.180;2023-05-23T06:21:40;61.30;;;26.90;;
422;SDS011;198;48.752;9.180;2023-05-23T06:24:06;60.10;;;25.67;;
422;SDS011;198;48.752;9.180;2023-05-23T06:26:31;58.23;;;26.83;;
422;SDS011;198;48.752;9.180;2023-05-23T06:28:57;54.67;;;26.00;;
422;SDS011;198;48.752;9.180;2023-05-23T06:31:23;64.00;;;26.90;;
422;SDS011;198;48.752;9.180;2023-05-23T06:33:48;49.60;;;24.43;;
422;SDS011;198;48.752;9.180;2023-05-23T06:36:13;64.10;;;25.07;;
422;SDS011;198;48.752;9.180;2023-05-23T06:38:39;46.97;;;22.97;;
422;SDS011;198;48.752;9.180;2023-05-23T06:41:04;54.40;;;26.00;;
422;SDS011;198;48.752;9.180;2023-05-23T06:43:31;50.50;;;25.40;;
422;SDS011;198;48.752;9.180;2023-05-23T06:45:56;63.90;;;27.33;;
422;SDS011;198;48.752;9.180;2023-05-23T06:48:22;50.73;;;24.03;;
422;SDS011;198;48.752;9.180;2023-05-23T06:50:47;57.40;;;24.07;;
422;SDS011;198;48.752;9.180;2023-05-23T06:53:13;49.40;;;23.97;;
422;SDS011;198;48.752;9.180;2023-05-23T06:55:40;61.20;;;27.90;;
422;SDS011;198;48.752;9.180;2023-05-23T06:58:05;55.87;;;25.07;;
422;SDS011;198;48.752;9.180;2023-05-23T07:00:31;51.60;;;22.20;;
422;SDS011;198;48.752;9.180;2023-05-23T07:02:56;51.13;;;25.87;;
422;SDS011;198;48.752;9.180;2023-05-23T07:05:27;50.20;;;23.97;;
422;SDS011;198;48.752;9.180;2023-05-23T07:07:52;49.23;;;22.30;;
422;SDS011;198;48.752;9.180;2023-05-23T07:10:18;50.23;;;24.97;;
422;SDS011;198;48.752;9.180;2023-05-23T07:12:45;49.83;;;23.97;;
422;SDS011;198;48.752;9.180;2023-05-23T07:15:11;47.50;;;22.13;;
422;SDS011;198;48.752;9.180;2023-05-23T07:17:37;50.90;;;23.50;;
422;SDS011;198;48.752;9.180;2023-05-23T07:20:03;59.13;;;26.13;;
422;SDS011;198;48.752;9.180;2023-05-23T07:22:29;53.70;;;26.30;;
422;SDS011;198;48.752;9.180;2023-05-23T07:24:55;64.53;;;26.00;;
422;SDS011;198;48.752;9.180;2023-05-23T07:27:20;50.57;;;23.93;;
422;SDS011;198;48.752;9.180;2023-05-23T07:29:46;45.00;;;23.07;;
422;SDS011;198;48.752;9.180;2023-05-23T07:32:12;36.27;;;18.80;;
422;SDS011;198;48.752;9.180;2023-05-23T07:34:37;47.33;;;21.00;;
422;SDS011;198;48.752;9.180;2023-05-23T07:37:03;48.03;;;20.97;;
422;SDS011;198;48.752;9.180;2023-05-23T07:39:28;49.23;;;21.57;;
422;SDS011;198;48.752;9.180;2023-05-23T07:41:54;38.27;;;19.37;;
422;SDS011;198;48.752;9.180;2023-05-23T07:44:19;40.60;;;20.40;;
422;SDS011;198;48.752;9.180;2023-05-23T07:46:45;38.63;;;18.90;;
422;SDS011;198;48.752;9.180;2023-05-23T07:49:10;53.20;;;22.60;;
422;SDS011;198;48.752;9.180;2023-05-23T07:51:36;54.80;;;23.67;;
422;SDS011;198;48.752;9.180;2023-05-23T07:54:01;61.43;;;26.17;;
422;SDS011;198;48.752;9.180;2023-05-23T07:56:27;51.67;;;23.87;;
422;SDS011;198;48.752;9.180;2023-05-23T07:58:52;60.37;;;24.60;;
422;SDS011;198;48.752;9.180;2023-05-23T08:01:18;61.30;;;26.57;;
422;SDS011;198;48.752;9.180;2023-05-23T08:03:44;43.60;;;21.03;;
422;SDS011;198;48.752;9.180;2023-05-23T08:06:09;40.90;;;20.97;;
422;SDS011;198;48.752;9.180;2023-05-23T08:08:35;44.47;;;20.60;;
422;SDS011;198;48.752;9.180;2023-05-23T08:11:01;41.90;;;20.87;;
422;SDS011;198;48.752;9.180;2023-05-23T08:13:27;39.70;;;18.20;;
422;SDS011;198;48.752;9.180;2023-05-23T08:15:53;35.60;;;18.20;;
422;SDS011;198;48.752;9.180;2023-05-23T08:18:18;36.23;;;16.20;;
422;SDS011;198;48.752;9.180;2023-05-23T08:20:44;38.17;;;18.20;;
422;SDS011;198;48.752;9.180;2023-05-23T08:23:10;38.27;;;20.27;;
422;SDS011;198;48.752;9.180;2023-05-23T08:25:36;33.73;;;17.43;;
422;SDS011;198;48.752;9.180;2023-05-23T08:28:02;41.63;;;18.97;;
422;SDS011;198;48.752;9.180;2023-05-23T08:30:28;32.37;;;16.20;;
422;SDS011;198;48.752;9.180;2023-05-23T08:32:54;41.77;;;19.27;;
422;SDS011;198;48.752;9.180;2023-05-23T08:35:20;34.87;;;16.40;;
422;SDS011;198;48.752;9.180;2023-05-23T08:37:46;32.93;;;15.53;;
422;SDS011;198;48.752;9.180;2023-05-23T08:40:19;30.87;;;15.10;;
422;SDS011;198;48.752;9.180;2023-05-23T08:42:46;27.40;;;14.40;;
422;SDS011;198;48.752;9.180;2023-05-23T08:45:15;28.67;;;14.20;;
422;SDS011;198;48.752;9.180;2023-05-23T08:47:41;32.10;;;15.73;;
422;SDS011;198;48.752;9.180;2023-05-23T08:50:12;25.67;;;14.57;;
422;SDS011;198;48.752;9.180;2023-05-23T08:52:49;35.97;;;17.07;;
422;SDS011;198;48.752;9.180;2023-05-23T08:55:22;35.57;;;16.00;;
422;SDS011;198;48.752;9.180;2023-05-23T08:57:51;25.70;;;13.80;;
422;SDS011;198;48.752;9.180;2023-05-23T09:00:17;27.20;;;13.97;;
422;SDS011;198;48.752;9.180;2023-05-23T09:02:44;30.20;;;14.87;;
422;SDS011;198;48.752;9.180;2023-05-23T09:05:11;25.20;;;13.47;;
422;SDS011;198;48.752;9.180;2023-05-23T09:07:37;29.23;;;12.70;;
422;SDS011;198;48.752;9.180;2023-05-23T09:10:08;31.20;;;15.97;;
422;SDS011;198;48.752;9.180;2023-05-23T09:12:34;31.70;;;14.67;;
422;SDS011;198;48.752;9.180;2023-05-23T09:15:03;32.73;;;15.70;;
422;SDS011;198;48.752;9.180;2023-05-23T09:17:30;23.00;;;13.53;;
422;SDS011;198;48.752;9.180;2023-05-23T09:19:57;29.53;;;15.60;;
422;SDS011;198;48.752;9.180;2023-05-23T09:22:23;29.53;;;16.50;;
422;SDS011;198;48.752;9.180;2023-05-23T09:24:53;25.87;;;14.13;;
422;SDS011;198;48.752;9.180;2023-05-23T09:27:20;22.73;;;12.07;;
422;SDS011;198;48.752;9.180;2023-05-23T09:29:46;36.20;;;16.00;;
422;SDS011;198;48.752;9.180;2023-05-23T09:32:13;23.40;;;12.47;;
422;SDS011;198;48.752;9.180;2023-05-23T09:34:55;24.60;;;13.70;;
422;SDS011;198;48.752;9.180;2023-05-23T09:37:23;22.73;;;12.70;;
422;SDS011;198;48.752;9.180;2023-05-23T09:39:53;26.83;;;13.83;;
422;SDS011;198;48.752;9.180;2023-05-23T09:42:19;23.87;;;13.77;;
422;SDS011;198;48.752;9.180;2023-05-23T09:44:49;27.50;;;13.00;;
422;SDS011;198;48.752;9.180;2023-05-23T09:47:15;19.60;;;11.17;;
422;SDS011;198;48.752;9.180;2023-05-23T09:49:44;28.63;;;12.70;;
422;SDS011;198;48.752;9.180;2023-05-23T09:52:10;22.27;;;11.30;;
422;SDS011;198;48.752;9.180;2023-05-23T09:54:37;21.53;;;11.30;;
422;SDS011;198;48.752;9.180;2023-05-23T09:57:03;22.03;;;11.90;;
422;SDS011;198;48.752;9.180;2023-05-23T09:59:34;25.90;;;11.53;;
422;SDS011;198;48.752;9.180;2023-05-23T10:02:04;22.40;;;9.50;;
422;SDS011;198;48.752;9.180;2023-05-23T10:04:40;19.57;;;10.40;;
422;SDS011;198;48.752;9.180;2023-05-23T10:07:16;23.33;;;9.73;;
422;SDS011;198;48.752;9.180;2023-05-23T10:09:55;32.30;;;10.57;;
422;SDS011;198;48.752;9.180;2023-05-23T10:12:44;17.63;;;10.10;;
422;SDS011;198;48.752;9.180;2023-05-23T10:15:12;18.37;;;10.10;;
422;SDS011;198;48.752;9.180;2023-05-23T10:17:52;17.13;;;9.20;;
422;SDS011;198;48.752;9.180;2023-05-23T10:20:27;18.57;;;8.90;;
422;SDS011;198;48.752;9.180;2023-05-23T10:22:56;16.53;;;9.80;;
422;SDS011;198;48.752;9.180;2023-05-23T10:25:27;18.83;;;10.07;;
422;SDS011;198;48.752;9.180;2023-05-23T10:27:57;18.47;;;9.77;;
422;SDS011;198;48.752;9.180;2023-05-23T10:30:24;14.80;;;8.63;;
422;SDS011;198;48.752;9.180;2023-05-23T10:32:55;14.47;;;7.43;;
422;SDS011;198;48.752;9.180;2023-05-23T10:35:24;13.63;;;7.73;;
422;SDS011;198;48.752;9.180;2023-05-23T10:40:36;13.50;;;7.50;;
422;SDS011;198;48.752;9.180;2023-05-23T10:43:22;16.27;;;8.57;;
422;SDS011;198;48.752;9.180;2023-05-23T10:45:53;14.13;;;6.87;;
422;SDS011;198;48.752;9.180;2023-05-23T10:48:31;13.27;;;7.13;;
422;SDS011;198;48.752;9.180;2023-05-23T10:51:03;13.07;;;7.80;;
422;SDS011;198;48.752;9.180;2023-05-23T10:53:37;17.27;;;8.70;;
422;SDS011;198;48.752;9.180;2023-05-23T10:56:04;11.60;;;7.17;;
422;SDS011;198;48.752;9.180;2023-05-23T10:58:31;19.80;;;7.67;;
422;SDS011;198;48.752;9.180;2023-05-23T11:00:59;13.30;;;8.17;;
422;SDS011;198;48.752;9.180;2023-05-23T11:04:08;12.33;;;6.67;;
422;SDS011;198;48.752;9.180;2023-05-23T11:06:29;16.63;;;8.53;;
422;SDS011;198;48.752;9.180;2023-05-23T11:09:03;11.50;;;7.20;;
422;SDS011;198;48.752;9.180;2023-05-23T11:14:16;13.50;;;7.03;;
422;SDS011;198;48.752;9.180;2023-05-23T11:16:42;12.63;;;6.43;;
422;SDS011;198;48.752;9.180;2023-05-23T11:21:48;15.43;;;7.70;;
422;SDS011;198;48.752;9.180;2023-05-23T11:24:17;13.23;;;7.77;;
422;SDS011;198;48.752;9.180;2023-05-23T11:29:19;13.47;;;6.73;;
422;SDS011;198;48.752;9.180;2023-05-23T11:31:45;12.60;;;5.43;;
422;SDS011;198;48.752;9.180;2023-05-23T11:34:10;10.40;;;6.30;;
422;SDS011;198;48.752;9.180;2023-05-23T11:36:37;7.97;;;5.00;;
422;SDS011;198;48.752;9.180;2023-05-23T11:39:04;9.73;;;5.80;;
422;SDS011;198;48.752;9.180;2023-05-23T11:41:30;11.13;;;6.13;;
422;SDS011;198;48.752;9.180;2023-05-23T11:43:57;7.43;;;5.10;;
422;SDS011;198;48.752;9.180;2023-05-23T11:46:23;7.33;;;5.80;;
422;SDS011;198;48.752;9.180;2023-05-23T11:48:49;6.97;;;5.00;;
422;SDS011;198;48.752;9.180;2023-05-23T11:51:14;11.30;;;6.70;;
422;SDS011;198;48.752;9.180;2023-05-23T11:53:41;12.63;;;6.63;;
422;SDS011;198;48.752;9.180;2023-05-23T11:56:07;10.07;;;6.27;;
422;SDS011;198;48.752;9.180;2023-05-23T11:58:34;16.00;;;7.50;;
422;SDS011;198;48.752;9.180;2023-05-23T12:01:01;13.07;;;7.77;;
422;SDS011;198;48.752;9.180;2023-05-23T12:03:28;10.37;;;6.43;;
422;SDS011;198;48.752;9.180;2023-05-23T12:05:54;9.50;;;5.90;;
422;SDS011;198;48.752;9.180;2023-05-23T12:08:20;14.03;;;7.13;;
422;SDS011;198;48.752;9.180;2023-05-23T12:11:04;7.80;;;5.53;;
422;SDS011;198;48.752;9.180;2023-05-23T12:13:30;8.47;;;5.53;;
422;SDS011;198;48.752;9.180;2023-05-23T12:15:55;8.20;;;5.03;;
422;SDS011;198;48.752;9.180;2023-05-23T12:18:24;11.03;;;5.50;;
422;SDS011;198;48.752;9.180;2023-05-23T12:20:53;8.33;;;5.93;;
422;SDS011;198;48.752;9.180;2023-05-23T12:23:20;9.90;;;5.77;;
422;SDS011;198;48.752;9.180;2023-05-23T12:25:48;8.30;;;5.10;;
422;SDS011;198;48.752;9.180;2023-05-23T12:28:18;9.90;;;5.20;;
422;SDS011;198;48.752;9.180;2023-05-23T12:30:44;6.53;;;4.27;;
422;SDS011;198;48.752;9.180;2023-05-23T12:33:10;8.57;;;5.00;;
422;SDS011;198;48.752;9.180;2023-05-23T12:35:36;4.70;;;3.80;;
422;SDS011;198;48.752;9.180;2023-05-23T12:38:04;3.30;;;2.77;;
422;SDS011;198;48.752;9.180;2023-05-23T12:40:30;5.40;;;4.27;;
422;SDS011;198;48.752;9.180;2023-05-23T12:42:56;5.80;;;3.73;;
422;SDS011;198;48.752;9.180;2023-05-23T12:45:23;4.67;;;3.77;;
422;SDS011;198;48.752;9.180;2023-05-23T12:47:55;3.67;;;3.20;;
422;SDS011;198;48.752;9.180;2023-05-23T12:50:20;4.33;;;3.23;;
422;SDS011;198;48.752;9.180;2023-05-23T12:52:46;7.60;;;3.80;;
422;SDS011;198;48.752;9.180;2023-05-23T12:55:12;3.40;;;3.07;;
422;SDS011;198;48.752;9.180;2023-05-23T12:57:38;4.30;;;3.63;;
422;SDS011;198;48.752;9.180;2023-05-23T13:00:03;3.83;;;3.30;;
422;SDS011;198;48.752;9.180;2023-05-23T13:02:30;6.10;;;4.40;;
422;SDS011;198;48.752;9.180;2023-05-23T13:04:56;5.43;;;4.17;;
422;SDS011;198;48.752;9.180;2023-05-23T13:07:22;3.57;;;3.37;;
422;SDS011;198;48.752;9.180;2023-05-23T13:09:47;5.00;;;3.33;;
422;SDS011;198;48.752;9.180;2023-05-23T13:12:13;3.40;;;2.80;;
422;SDS011;198;48.752;9.180;2023-05-23T13:14:39;3.70;;;3.40;;
422;SDS011;198;48.752;9.180;2023-05-23T13:17:05;4.70;;;2.87;;
422;SDS011;198;48.752;9.180;2023-05-23T13:19:31;4.87;;;3.20;;
422;SDS011;198;48.752;9.180;2023-05-23T13:21:56;5.23;;;3.50;;
422;SDS011;198;48.752;9.180;2023-05-23T13:24:22;3.30;;;2.93;;
422;SDS011;198;48.752;9.180;2023-05-23T13:26:48;4.60;;;3.50;;
422;SDS011;198;48.752;9.180;2023-05-23T13:29:13;3.67;;;2.87;;
422;SDS011;198;48.752;9.180;2023-05-23T13:31:39;3.80;;;3.13;;
422;SDS011;198;48.752;9.180;2023-05-23T13:34:04;6.30;;;3.60;;
422;SDS011;198;48.752;9.180;2023-05-23T13:36:30;6.07;;;3.83;;
422;SDS011;198;48.752;9.180;2023-05-23T13:38:57;5.83;;;3.83;;
422;SDS011;198;48.752;9.180;2023-05-23T13:41:23;5.43;;;3.80;;
422;SDS011;198;48.752;9.180;2023-05-23T13:43:48;8.27;;;3.83;;
422;SDS011;198;48.752;9.180;2023-05-23T13:46:14;8.23;;;4.33;;
422;SDS011;198;48.752;9.180;2023-05-23T13:48:39;6.00;;;4.33;;
422;SDS011;198;48.752;9.180;2023-05-23T13:51:05;6.40;;;3.97;;
422;SDS011;198;48.752;9.180;2023-05-23T13:53:31;3.97;;;3.70;;
422;SDS011;198;48.752;9.180;2023-05-23T13:55:56;5.23;;;3.73;;
422;SDS011;198;48.752;9.180;2023-05-23T13:58:22;3.97;;;3.43;;
422;SDS011;198;48.752;9.180;2023-05-23T14:00:47;4.30;;;2.90;;
422;SDS011;198;48.752;9.180;2023-05-23T14:03:13;3.80;;;2.87;;
422;SDS011;198;48.752;9.180;2023-05-23T14:05:39;8.67;;;3.37;;
422;SDS011;198;48.752;9.180;2023-05-23T14:08:05;5.50;;;3.27;;
422;SDS011;198;48.752;9.180;2023-05-23T14:10:30;5.13;;;3.37;;
422;SDS011;198;48.752;9.180;2023-05-23T14:12:57;9.27;;;3.40;;
422;SDS011;198;48.752;9.180;2023-05-23T14:15:23;3.80;;;3.27;;
422;SDS011;198;48.752;9.180;2023-05-23T14:17:48;3.97;;;3.03;;
422;SDS011;198;48.752;9.180;2023-05-23T14:20:19;4.70;;;3.60;;
422;SDS011;198;48.752;9.180;2023-05-23T14:22:48;5.27;;;3.50;;
422;SDS011;198;48.752;9.180;2023-05-23T14:25:14;6.13;;;4.20;;
422;SDS011;198;48.752;9.180;2023-05-23T14:27:40;5.90;;;3.77;;
422;SDS011;198;48.752;9.180;2023-05-23T14:30:06;8.53;;;3.47;;
422;SDS011;198;48.752;9.180;2023-05-23T14:32:32;8.00;;;3.40;;
422;SDS011;198;48.752;9.180;2023-05-23T14:35:02;7.60;;;2.50;;
422;SDS011;198;48.752;9.180;2023-05-23T14:37:29;3.20;;;2.90;;
422;SDS011;198;48.752;9.180;2023-05-23T14:39:54;3.23;;;2.67;;
422;SDS011;198;48.752;9.180;2023-05-23T14:42:21;3.30;;;2.80;;
422;SDS011;198;48.752;9.180;2023-05-23T14:44:46;3.10;;;2.73;;
422;SDS011;198;48.752;9.180;2023-05-23T14:47:12;4.10;;;3.30;;
422;SDS011;198;48.752;9.180;2023-05-23T14:49:37;8.70;;;2.50;;
422;SDS011;198;48.752;9.180;2023-05-23T14:52:03;4.13;;;2.80;;
422;SDS011;198;48.752;9.180;2023-05-23T14:54:28;4.10;;;2.63;;
422;SDS011;198;48.752;9.180;2023-05-23T14:56:54;4.93;;;3.30;;
422;SDS011;198;48.752;9.180;2023-05-23T14:59:20;10.03;;;2.93;;
422;SDS011;198;48.752;9.180;2023-05-23T15:01:46;4.30;;;2.73;;
422;SDS011;198;48.752;9.180;2023-05-23T15:04:12;5.27;;;3.57;;
422;SDS011;198;48.752;9.180;2023-05-23T15:06:37;4.87;;;2.97;;
422;SDS011;198;48.752;9.180;2023-05-23T15:09:03;4.57;;;3.53;;
422;SDS011;198;48.752;9.180;2023-05-23T15:11:29;4.50;;;3.37;;
422;SDS011;198;48.752;9.180;2023-05-23T15:13:55;11.93;;;4.43;;
422;SDS011;198;48.752;9.180;2023-05-23T15:16:21;6.70;;;3.10;;
422;SDS011;198;48.752;9.180;2023-05-23T15:18:47;5.33;;;3.40;;
422;SDS011;198;48.752;9.180;2023-05-23T15:21:12;4.90;;;3.10;;
422;SDS011;198;48.752;9.180;2023-05-23T15:23:38;5.13;;;3.73;;
422;SDS011;198;48.752;9.180;2023-05-23T15:26:04;4.60;;;3.60;;
422;SDS011;198;48.752;9.180;2023-05-23T15:28:29;6.10;;;3.23;;
422;SDS011;198;48.752;9.180;2023-05-23T15:30:55;4.83;;;3.10;;
422;SDS011;198;48.752;9.180;2023-05-23T15:33:21;7.07;;;3.40;;
422;SDS011;198;48.752;9.180;2023-05-23T15:35:47;12.57;;;5.03;;